Time;durP1;ratioP1;P1;durP2;ratioP2;P2;SDS_P1;SDS_P2;PMS_P1;PMS_P2;Temp;Humidity;BMP_temperature;BMP_pressure;BME280_temperature;BME280_humidity;BME280_pressure;Samples;Min_cycle;Max_cycle;Signal;HPM_P1;HPM_P2
2024/01/03 00:00:17;;;;;;;11.98;2.33;;;12.10;95.90;;;;;;10404274;28;20216;-62
2024/01/03 00:05:23;;;;;;;10.82;2.40;;;12.10;95.90;;;;;;10393310;28;20216;-62
2024/01/03 00:10:41;;;;;;;10.30;2.10;;;12.10;95.90;;;;;;10404254;28;20204;-62
2024/01/03 00:16:17;;;;;;;6.68;2.15;;;12.00;95.70;;;;;;10410642;28;20212;-62
2024/01/03 00:21:25;;;;;;;11.70;2.50;;;12.00;95.90;;;;;;10408720;28;20270;-62
2024/01/03 00:26:30;;;;;;;10.27;2.55;;;11.90;96.30;;;;;;10419094;28;20246;-62
2024/01/03 00:31:38;;;;;;;10.55;2.72;;;11.80;96.30;;;;;;10426202;28;20258;-62
2024/01/03 00:36:43;;;;;;;11.05;2.20;;;11.80;96.60;;;;;;10415315;28;20270;-62
2024/01/03 00:41:46;;;;;;;12.50;2.60;;;11.70;96.90;;;;;;10415107;28;20285;-62
2024/01/03 00:46:50;;;;;;;10.02;2.38;;;11.60;97.30;;;;;;10412006;28;20321;-62
2024/01/03 00:51:56;;;;;;;12.90;2.70;;;11.60;97.80;;;;;;10415242;28;20685;-62
2024/01/03 00:57:00;;;;;;;9.40;2.30;;;11.50;98.00;;;;;;10412591;28;20220;-62
2024/01/03 01:02:04;;;;;;;13.80;2.80;;;11.40;98.70;;;;;;10409520;28;20230;-62
2024/01/03 01:07:11;;;;;;;14.43;3.30;;;11.30;99.10;;;;;;10420065;28;20689;-62
2024/01/03 01:12:14;;;;;;;12.27;2.55;;;11.20;98.70;;;;;;10407552;28;20200;-61
2024/01/03 01:17:18;;;;;;;10.35;2.58;;;11.20;98.40;;;;;;10412343;28;20295;-62
2024/01/03 01:22:25;;;;;;;10.05;2.88;;;11.20;98.10;;;;;;10408955;28;20267;-62
2024/01/03 01:27:29;;;;;;;12.63;2.90;;;11.30;97.90;;;;;;10407787;28;20982;-62
2024/01/03 01:32:32;;;;;;;9.85;2.25;;;11.30;98.10;;;;;;10412058;28;20609;-62
2024/01/03 01:37:37;;;;;;;12.43;2.63;;;11.30;98.30;;;;;;10410900;28;20228;-62
2024/01/03 01:42:42;;;;;;;7.80;2.20;;;11.30;98.50;;;;;;10414884;28;20654;-62
2024/01/03 01:47:46;;;;;;;11.57;2.40;;;11.30;98.60;;;;;;10412631;28;20282;-61
2024/01/03 01:52:52;;;;;;;12.95;2.45;;;11.30;98.80;;;;;;10410457;28;20204;-62
2024/01/03 01:57:56;;;;;;;11.60;2.42;;;11.30;99.20;;;;;;10409918;28;20228;-62
2024/01/03 02:03:00;;;;;;;11.88;2.40;;;11.20;99.30;;;;;;10400991;28;20266;-62
2024/01/03 02:08:08;;;;;;;12.60;2.83;;;11.10;99.30;;;;;;10411244;28;20754;-61
2024/01/03 02:13:12;;;;;;;10.57;2.75;;;11.10;99.80;;;;;;10414487;28;20205;-61
2024/01/03 02:18:16;;;;;;;10.55;2.63;;;11.00;99.70;;;;;;10416234;28;20196;-62
2024/01/03 02:23:21;;;;;;;11.00;2.30;;;11.00;99.70;;;;;;10403116;28;20619;-62
2024/01/03 02:28:25;;;;;;;10.90;2.10;;;11.00;99.90;;;;;;10413244;28;20216;-61
2024/01/03 02:33:28;;;;;;;11.05;2.08;;;11.10;99.60;;;;;;10404877;28;20224;-60
2024/01/03 02:38:33;;;;;;;11.77;2.38;;;11.10;99.50;;;;;;10409255;28;20752;-62
2024/01/03 02:43:37;;;;;;;11.63;2.10;;;11.10;99.40;;;;;;10406927;28;20712;-62
2024/01/03 02:48:41;;;;;;;9.77;1.88;;;11.10;99.60;;;;;;10408196;28;20231;-62
2024/01/03 02:53:46;;;;;;;9.63;1.65;;;11.10;99.90;;;;;;10403443;28;20630;-62
2024/01/03 02:58:49;;;;;;;8.17;1.57;;;11.10;99.90;;;;;;10407349;28;20200;-61
2024/01/03 03:03:53;;;;;;;8.80;2.00;;;11.10;99.90;;;;;;10407706;28;20220;-62
2024/01/03 03:08:58;;;;;;;7.90;1.83;;;11.00;99.90;;;;;;10400775;28;20251;-62
2024/01/03 03:14:18;;;;;;;7.60;1.80;;;11.00;99.90;;;;;;10405358;28;20275;-62
2024/01/03 03:19:22;;;;;;;11.05;1.63;;;11.00;99.90;;;;;;10404742;28;20227;-62
2024/01/03 03:24:30;;;;;;;7.70;1.55;;;11.00;99.90;;;;;;10415043;28;20574;-62
2024/01/03 03:29:33;;;;;;;6.05;1.70;;;11.00;99.90;;;;;;10412455;28;20274;-61
2024/01/03 03:34:39;;;;;;;5.87;1.47;;;11.00;99.90;;;;;;10406587;28;20220;-62
2024/01/03 03:39:45;;;;;;;6.77;1.70;;;11.10;99.50;;;;;;10408216;28;20203;-62
2024/01/03 03:44:49;;;;;;;5.63;1.77;;;11.10;99.10;;;;;;10414281;28;20215;-60
2024/01/03 03:49:54;;;;;;;5.82;1.13;;;11.10;99.20;;;;;;10412722;28;20274;-62
2024/01/03 03:54:59;;;;;;;8.02;1.70;;;11.10;99.50;;;;;;10407200;28;20250;-61
2024/01/03 04:00:13;;;;;;;8.10;2.13;;;11.00;99.70;;;;;;10408181;28;20200;-63
2024/01/03 04:05:20;;;;;;;6.38;1.90;;;11.00;99.80;;;;;;10400784;28;20224;-62
2024/01/03 04:10:28;;;;;;;10.25;1.83;;;10.90;99.60;;;;;;10401221;28;20644;-61
2024/01/03 04:15:31;;;;;;;10.68;2.03;;;11.00;99.40;;;;;;10406883;28;20285;-60
2024/01/03 04:20:39;;;;;;;10.57;2.10;;;11.00;99.20;;;;;;10402621;28;20567;-62
2024/01/03 04:25:48;;;;;;;8.65;2.03;;;11.00;99.30;;;;;;10412115;28;20223;-62
2024/01/03 04:30:57;;;;;;;7.82;1.58;;;11.00;99.10;;;;;;10412594;28;20286;-61
2024/01/03 04:36:01;;;;;;;7.63;1.40;;;11.00;99.30;;;;;;10405383;28;20224;-63
2024/01/03 04:41:06;;;;;;;5.85;1.70;;;11.10;99.10;;;;;;10394053;28;20208;-63
2024/01/03 04:46:10;;;;;;;6.40;1.77;;;11.10;99.50;;;;;;10405493;28;20239;-62
2024/01/03 04:51:13;;;;;;;5.43;1.40;;;11.00;99.30;;;;;;10403096;28;20597;-62
2024/01/03 04:56:24;;;;;;;8.98;1.63;;;11.00;99.20;;;;;;10407547;28;20637;-63
2024/01/03 05:01:28;;;;;;;9.90;1.92;;;11.00;99.30;;;;;;10405489;28;20204;-64
2024/01/03 05:06:32;;;;;;;6.93;1.75;;;11.00;99.20;;;;;;10403844;28;20282;-63
2024/01/03 05:11:37;;;;;;;6.80;1.88;;;11.00;99.00;;;;;;10406893;28;20271;-62
2024/01/03 05:16:41;;;;;;;6.63;1.45;;;11.00;98.70;;;;;;10406286;28;20742;-63
2024/01/03 18:49:20;;;;;;;6.73;2.53;;;9.00;99.90;;;;;;10524344;27;21231;-60
2024/01/03 18:54:24;;;;;;;7.00;2.53;;;9.10;99.90;;;;;;10484165;28;20219;-61
2024/01/03 18:59:28;;;;;;;8.63;3.13;;;9.30;99.90;;;;;;10479987;28;20249;-61
2024/01/03 19:04:33;;;;;;;6.93;1.73;;;9.40;99.90;;;;;;10482299;28;20241;-60
2024/01/03 19:09:37;;;;;;;6.07;1.90;;;9.60;99.90;;;;;;10473649;28;20465;-61
2024/01/03 19:14:40;;;;;;;6.10;1.73;;;9.60;99.90;;;;;;10477260;28;20904;-61
2024/01/03 19:19:45;;;;;;;9.90;2.83;;;9.70;99.90;;;;;;10479340;28;20256;-61
2024/01/03 19:24:49;;;;;;;6.90;2.35;;;9.80;99.90;;;;;;10475942;28;20296;-61
2024/01/03 19:29:53;;;;;;;9.73;2.83;;;9.80;99.90;;;;;;10474230;28;20202;-61
2024/01/03 19:34:58;;;;;;;11.15;2.22;;;9.90;99.90;;;;;;10480224;28;20756;-61
2024/01/03 19:40:02;;;;;;;8.98;2.63;;;9.90;99.90;;;;;;10474782;28;20720;-59
2024/01/03 19:45:06;;;;;;;7.88;2.00;;;10.00;99.90;;;;;;10479271;28;20748;-61
2024/01/03 19:50:15;;;;;;;5.85;2.22;;;10.00;99.90;;;;;;10476589;28;20199;-61
2024/01/03 19:55:19;;;;;;;12.57;4.25;;;10.00;99.90;;;;;;10478872;28;20273;-61
2024/01/03 20:00:22;;;;;;;9.47;2.60;;;10.00;99.90;;;;;;10456981;28;20195;-60
2024/01/03 20:05:28;;;;;;;9.83;2.13;;;10.10;99.90;;;;;;10445085;28;20719;-60
2024/01/03 20:10:32;;;;;;;11.47;2.93;;;10.10;99.90;;;;;;10439024;28;20208;-62
2024/01/03 20:15:37;;;;;;;5.97;2.10;;;10.10;99.90;;;;;;10441365;28;20220;-60
2024/01/03 20:20:43;;;;;;;8.27;2.88;;;10.10;99.90;;;;;;10442281;28;20262;-60
2024/01/03 20:25:47;;;;;;;6.27;1.90;;;10.10;99.90;;;;;;10457121;28;20303;-62
2024/01/03 20:30:51;;;;;;;5.18;1.98;;;10.10;99.90;;;;;;10449176;28;20204;-62
2024/01/03 20:35:56;;;;;;;4.40;1.80;;;10.10;99.90;;;;;;10446243;28;20593;-61
2024/01/03 20:41:00;;;;;;;3.40;1.95;;;10.10;99.90;;;;;;10440729;28;20257;-66
2024/01/03 20:46:04;;;;;;;4.85;2.13;;;10.10;99.90;;;;;;10450023;28;20219;-65
2024/01/03 20:51:15;;;;;;;4.65;2.20;;;10.10;99.90;;;;;;10448130;28;20201;-62
2024/01/03 20:56:19;;;;;;;5.40;2.25;;;10.10;99.90;;;;;;10480488;28;20211;-61
2024/01/03 21:01:23;;;;;;;4.33;2.20;;;10.10;99.90;;;;;;10495483;28;20245;-62
2024/01/03 21:06:28;;;;;;;4.95;2.60;;;10.10;99.90;;;;;;10481506;28;20208;-63
2024/01/03 21:11:31;;;;;;;5.40;2.42;;;10.10;99.90;;;;;;10452847;28;20203;-61
2024/01/03 21:16:35;;;;;;;5.30;2.20;;;10.10;99.90;;;;;;10453192;28;20239;-62
2024/01/03 21:21:40;;;;;;;9.00;2.80;;;10.10;99.90;;;;;;10452886;28;20215;-61
2024/01/03 21:26:45;;;;;;;3.47;1.63;;;10.10;99.90;;;;;;10452350;28;20242;-62
2024/01/03 21:31:49;;;;;;;2.55;1.33;;;10.10;99.90;;;;;;10452292;28;20584;-63
2024/01/03 21:36:54;;;;;;;1.45;0.82;;;10.00;99.90;;;;;;10451885;28;20215;-62
2024/01/03 21:41:57;;;;;;;6.57;1.90;;;9.90;99.90;;;;;;10452196;28;20179;-63
2024/01/03 21:47:01;;;;;;;1.35;0.80;;;9.80;99.90;;;;;;10451705;28;20224;-63
2024/01/03 21:52:07;;;;;;;1.02;0.60;;;9.80;99.90;;;;;;10451686;28;20257;-61
2024/01/03 21:57:10;;;;;;;1.37;0.60;;;9.70;99.90;;;;;;10451551;28;20215;-60
2024/01/03 22:02:14;;;;;;;1.80;0.67;;;9.70;99.90;;;;;;10451092;28;20203;-61
2024/01/03 22:07:19;;;;;;;6.10;1.03;;;9.60;99.90;;;;;;10450608;28;20219;-62
2024/01/03 22:12:22;;;;;;;2.40;0.70;;;9.50;99.90;;;;;;10450851;28;20204;-63
2024/01/03 22:17:26;;;;;;;2.60;1.10;;;9.50;99.90;;;;;;10450355;28;20694;-63
2024/01/03 22:22:31;;;;;;;2.63;0.90;;;9.50;99.90;;;;;;10450246;28;20207;-65
2024/01/03 22:27:35;;;;;;;2.40;0.80;;;9.40;99.90;;;;;;10450348;28;20289;-62
2024/01/03 22:32:38;;;;;;;1.30;0.50;;;9.40;99.90;;;;;;10486444;28;20203;-63
2024/01/03 22:37:43;;;;;;;0.90;0.60;;;9.40;99.90;;;;;;10491454;28;20219;-60
2024/01/03 22:42:47;;;;;;;2.80;0.53;;;9.30;99.90;;;;;;10491069;28;20252;-63
2024/01/03 22:47:51;;;;;;;3.73;1.13;;;9.30;99.90;;;;;;10490733;28;20230;-63
2024/01/03 22:52:57;;;;;;;1.83;0.73;;;9.30;99.90;;;;;;10491261;28;20265;-63
2024/01/03 22:58:01;;;;;;;2.00;0.77;;;9.30;99.90;;;;;;10459810;28;20215;-62
2024/01/03 23:03:05;;;;;;;1.70;0.60;;;9.30;99.90;;;;;;10476505;28;20214;-63
2024/01/03 23:08:10;;;;;;;3.47;1.20;;;9.30;99.90;;;;;;10449776;28;20211;-63
2024/01/03 23:13:14;;;;;;;1.60;0.87;;;9.20;99.90;;;;;;10449685;28;20330;-63
2024/01/03 23:18:17;;;;;;;1.73;0.80;;;9.20;99.90;;;;;;10449316;28;20226;-64
2024/01/03 23:23:22;;;;;;;3.43;1.33;;;9.20;99.90;;;;;;10449427;28;20233;-63
2024/01/03 23:28:38;;;;;;;7.63;2.17;;;9.20;99.90;;;;;;10449106;28;20207;-61
2024/01/03 23:33:42;;;;;;;2.23;1.40;;;9.20;99.90;;;;;;10452883;28;20216;-61
2024/01/03 23:38:47;;;;;;;1.70;0.90;;;9.20;99.90;;;;;;10456854;28;20195;-61
2024/01/03 23:43:51;;;;;;;1.40;1.00;;;9.20;99.90;;;;;;10456726;28;20273;-63
2024/01/03 23:48:54;;;;;;;2.93;0.90;;;9.20;99.90;;;;;;10456720;28;20246;-63
2024/01/03 23:54:00;;;;;;;1.87;0.93;;;9.20;99.90;;;;;;10456642;28;20241;-62
2024/01/03 23:59:04;;;;;;;3.67;0.93;;;9.10;99.90;;;;;;10456230;28;20214;-64
